sensor_id;sensor_type;location;lat;lon;timestamp;temperature;humidity
22108;DHT22;11220;48.812;9.128;2023-11-22T00:00:07;18.20;86.80
22108;DHT22;11220;48.812;9.128;2023-11-22T00:02:32;18.20;86.90
22108;DHT22;11220;48.812;9.128;2023-11-22T00:04:58;18.20;86.80
22108;DHT22;11220;48.812;9.128;2023-11-22T00:07:23;18.10;86.70
22108;DHT22;11220;48.812;9.128;2023-11-22T00:09:49;18.20;86.80
22108;DHT22;11220;48.812;9.128;2023-11-22T00:12:14;18.10;86.70
22108;DHT22;11220;48.812;9.128;2023-11-22T00:14:43;18.10;86.70
22108;DHT22;11220;48.812;9.128;2023-11-22T00:17:08;18.10;86.70
22108;DHT22;11220;48.812;9.128;2023-11-22T00:19:34;18.10;86.70
22108;DHT22;11220;48.812;9.128;2023-11-22T00:21:59;18.10;86.80
22108;DHT22;11220;48.812;9.128;2023-11-22T00:24:25;18.10;86.80
22108;DHT22;11220;48.812;9.128;2023-11-22T00:26:51;18.10;86.80
22108;DHT22;11220;48.812;9.128;2023-11-22T00:29:16;18.10;86.80
22108;DHT22;11220;48.812;9.128;2023-11-22T00:31:42;18.10;86.80
22108;DHT22;11220;48.812;9.128;2023-11-22T00:34:09;18.10;86.70
22108;DHT22;11220;48.812;9.128;2023-11-22T00:36:35;18.10;86.90
22108;DHT22;11220;48.812;9.128;2023-11-22T00:39:01;18.10;86.80
22108;DHT22;11220;48.812;9.128;2023-11-22T00:41:31;18.10;86.80
22108;DHT22;11220;48.812;9.128;2023-11-22T00:43:57;18.10;86.80
22108;DHT22;11220;48.812;9.128;2023-11-22T00:46:22;18.10;86.80
22108;DHT22;11220;48.812;9.128;2023-11-22T00:48:48;18.10;86.80
22108;DHT22;11220;48.812;9.128;2023-11-22T00:51:13;18.10;86.80
22108;DHT22;11220;48.812;9.128;2023-11-22T00:53:39;18.10;86.80
22108;DHT22;11220;48.812;9.128;2023-11-22T00:56:05;18.10;86.80
22108;DHT22;11220;48.812;9.128;2023-11-22T00:58:31;18.10;86.80
22108;DHT22;11220;48.812;9.128;2023-11-22T01:00:57;18.10;86.80
22108;DHT22;11220;48.812;9.128;2023-11-22T01:03:23;18.00;86.70
22108;DHT22;11220;48.812;9.128;2023-11-22T01:05:48;18.00;86.70
22108;DHT22;11220;48.812;9.128;2023-11-22T01:08:14;18.00;86.70
22108;DHT22;11220;48.812;9.128;2023-11-22T01:10:40;18.00;86.70
22108;DHT22;11220;48.812;9.128;2023-11-22T01:13:05;18.00;86.70
22108;DHT22;11220;48.812;9.128;2023-11-22T01:15:31;18.00;86.70
22108;DHT22;11220;48.812;9.128;2023-11-22T01:17:57;18.00;86.80
22108;DHT22;11220;48.812;9.128;2023-11-22T01:20:23;18.00;86.70
22108;DHT22;11220;48.812;9.128;2023-11-22T01:22:49;18.00;86.70
22108;DHT22;11220;48.812;9.128;2023-11-22T01:25:14;18.00;86.70
22108;DHT22;11220;48.812;9.128;2023-11-22T01:27:40;18.00;86.70
22108;DHT22;11220;48.812;9.128;2023-11-22T01:30:06;18.00;86.70
22108;DHT22;11220;48.812;9.128;2023-11-22T01:32:34;18.00;86.70
22108;DHT22;11220;48.812;9.128;2023-11-22T01:35:01;18.00;86.80
22108;DHT22;11220;48.812;9.128;2023-11-22T01:37:26;17.90;86.70
22108;DHT22;11220;48.812;9.128;2023-11-22T01:39:52;17.90;86.70
22108;DHT22;11220;48.812;9.128;2023-11-22T01:42:20;17.90;86.80
22108;DHT22;11220;48.812;9.128;2023-11-22T01:44:46;17.90;86.70
22108;DHT22;11220;48.812;9.128;2023-11-22T01:47:13;17.90;86.70
22108;DHT22;11220;48.812;9.128;2023-11-22T01:49:39;17.90;86.70
22108;DHT22;11220;48.812;9.128;2023-11-22T01:52:05;17.90;86.70
22108;DHT22;11220;48.812;9.128;2023-11-22T01:54:31;17.90;86.70
22108;DHT22;11220;48.812;9.128;2023-11-22T01:56:57;17.90;86.70
22108;DHT22;11220;48.812;9.128;2023-11-22T01:59:24;17.90;86.80
22108;DHT22;11220;48.812;9.128;2023-11-22T02:01:52;17.90;86.70
22108;DHT22;11220;48.812;9.128;2023-11-22T02:04:18;17.90;86.70
22108;DHT22;11220;48.812;9.128;2023-11-22T02:06:43;17.90;86.80
22108;DHT22;11220;48.812;9.128;2023-11-22T02:09:09;17.90;86.70
22108;DHT22;11220;48.812;9.128;2023-11-22T02:11:39;17.90;86.80
22108;DHT22;11220;48.812;9.128;2023-11-22T02:14:04;17.90;86.70
22108;DHT22;11220;48.812;9.128;2023-11-22T02:16:32;17.90;86.70
22108;DHT22;11220;48.812;9.128;2023-11-22T02:18:58;17.90;86.70
22108;DHT22;11220;48.812;9.128;2023-11-22T02:21:23;17.90;86.70
22108;DHT22;11220;48.812;9.128;2023-11-22T02:23:49;17.90;86.70
22108;DHT22;11220;48.812;9.128;2023-11-22T02:26:15;17.90;86.70
22108;DHT22;11220;48.812;9.128;2023-11-22T02:28:43;17.80;86.60
22108;DHT22;11220;48.812;9.128;2023-11-22T02:31:09;17.80;86.70
22108;DHT22;11220;48.812;9.128;2023-11-22T02:33:34;17.80;86.60
22108;DHT22;11220;48.812;9.128;2023-11-22T02:36:01;17.80;86.60
22108;DHT22;11220;48.812;9.128;2023-11-22T02:38:27;17.80;86.60
22108;DHT22;11220;48.812;9.128;2023-11-22T02:40:53;17.80;86.60
22108;DHT22;11220;48.812;9.128;2023-11-22T02:43:19;17.80;86.60
22108;DHT22;11220;48.812;9.128;2023-11-22T02:45:45;17.80;86.60
22108;DHT22;11220;48.812;9.128;2023-11-22T02:48:11;17.80;86.60
22108;DHT22;11220;48.812;9.128;2023-11-22T02:50:37;17.80;86.60
22108;DHT22;11220;48.812;9.128;2023-11-22T02:53:03;17.80;86.60
22108;DHT22;11220;48.812;9.128;2023-11-22T02:55:29;17.80;86.60
22108;DHT22;11220;48.812;9.128;2023-11-22T02:57:54;17.80;86.60
22108;DHT22;11220;48.812;9.128;2023-11-22T03:00:20;17.80;86.50
22108;DHT22;11220;48.812;9.128;2023-11-22T03:02:46;17.80;86.60
22108;DHT22;11220;48.812;9.128;2023-11-22T03:05:13;17.80;86.60
22108;DHT22;11220;48.812;9.128;2023-11-22T03:07:42;17.80;86.60
22108;DHT22;11220;48.812;9.128;2023-11-22T03:10:08;17.80;86.60
22108;DHT22;11220;48.812;9.128;2023-11-22T03:12:34;17.70;86.50
22108;DHT22;11220;48.812;9.128;2023-11-22T03:15:00;17.70;86.50
22108;DHT22;11220;48.812;9.128;2023-11-22T03:17:28;17.70;86.50
22108;DHT22;11220;48.812;9.128;2023-11-22T03:19:56;17.70;86.50
22108;DHT22;11220;48.812;9.128;2023-11-22T03:22:23;17.70;86.50
22108;DHT22;11220;48.812;9.128;2023-11-22T03:24:49;17.70;86.50
22108;DHT22;11220;48.812;9.128;2023-11-22T03:27:14;17.70;86.50
22108;DHT22;11220;48.812;9.128;2023-11-22T03:29:40;17.70;87.40
22108;DHT22;11220;48.812;9.128;2023-11-22T03:32:06;17.70;86.50
22108;DHT22;11220;48.812;9.128;2023-11-22T03:34:32;17.70;86.40
22108;DHT22;11220;48.812;9.128;2023-11-22T03:36:57;17.70;86.50
22108;DHT22;11220;48.812;9.128;2023-11-22T03:39:23;17.60;86.40
22108;DHT22;11220;48.812;9.128;2023-11-22T03:41:48;17.70;86.50
22108;DHT22;11220;48.812;9.128;2023-11-22T03:44:16;17.70;86.50
22108;DHT22;11220;48.812;9.128;2023-11-22T03:46:41;17.60;86.40
22108;DHT22;11220;48.812;9.128;2023-11-22T03:49:07;17.60;86.40
22108;DHT22;11220;48.812;9.128;2023-11-22T03:51:38;17.60;86.40
22108;DHT22;11220;48.812;9.128;2023-11-22T03:54:04;17.60;86.40
22108;DHT22;11220;48.812;9.128;2023-11-22T03:56:30;17.60;86.40
22108;DHT22;11220;48.812;9.128;2023-11-22T03:58:56;17.60;86.40
22108;DHT22;11220;48.812;9.128;2023-11-22T04:01:21;17.60;86.40
22108;DHT22;11220;48.812;9.128;2023-11-22T04:03:48;17.60;86.40
22108;DHT22;11220;48.812;9.128;2023-11-22T04:06:18;17.60;86.40
22108;DHT22;11220;48.812;9.128;2023-11-22T04:08:45;17.70;86.50
22108;DHT22;11220;48.812;9.128;2023-11-22T04:11:11;17.60;86.40
22108;DHT22;11220;48.812;9.128;2023-11-22T04:13:37;17.60;86.40
22108;DHT22;11220;48.812;9.128;2023-11-22T04:16:04;17.60;86.30
22108;DHT22;11220;48.812;9.128;2023-11-22T04:18:30;17.60;86.30
22108;DHT22;11220;48.812;9.128;2023-11-22T04:20:55;17.60;86.30
22108;DHT22;11220;48.812;9.128;2023-11-22T04:23:23;17.70;86.40
22108;DHT22;11220;48.812;9.128;2023-11-22T04:25:49;17.60;86.30
22108;DHT22;11220;48.812;9.128;2023-11-22T04:28:15;17.60;86.30
22108;DHT22;11220;48.812;9.128;2023-11-22T04:30:40;17.60;86.40
22108;DHT22;11220;48.812;9.128;2023-11-22T04:33:07;17.60;86.30
22108;DHT22;11220;48.812;9.128;2023-11-22T04:35:32;17.60;86.30
22108;DHT22;11220;48.812;9.128;2023-11-22T04:38:02;17.50;86.30
22108;DHT22;11220;48.812;9.128;2023-11-22T04:40:28;17.50;86.30
22108;DHT22;11220;48.812;9.128;2023-11-22T04:42:53;17.50;86.20
22108;DHT22;11220;48.812;9.128;2023-11-22T04:45:19;17.50;86.20
22108;DHT22;11220;48.812;9.128;2023-11-22T04:47:44;17.60;86.20
22108;DHT22;11220;48.812;9.128;2023-11-22T04:50:10;17.50;86.20
22108;DHT22;11220;48.812;9.128;2023-11-22T04:52:36;17.50;86.20
22108;DHT22;11220;48.812;9.128;2023-11-22T04:55:01;17.50;86.20
22108;DHT22;11220;48.812;9.128;2023-11-22T04:57:27;17.50;86.20
22108;DHT22;11220;48.812;9.128;2023-11-22T04:59:52;17.50;86.20
22108;DHT22;11220;48.812;9.128;2023-11-22T05:02:18;17.50;86.20
22108;DHT22;11220;48.812;9.128;2023-11-22T05:04:44;17.50;86.20
22108;DHT22;11220;48.812;9.128;2023-11-22T05:07:14;17.50;86.20
22108;DHT22;11220;48.812;9.128;2023-11-22T05:09:40;17.50;86.20
22108;DHT22;11220;48.812;9.128;2023-11-22T05:12:05;17.50;86.20
22108;DHT22;11220;48.812;9.128;2023-11-22T05:14:31;17.50;86.10
22108;DHT22;11220;48.812;9.128;2023-11-22T05:16:57;17.50;86.10
22108;DHT22;11220;48.812;9.128;2023-11-22T05:19:22;17.50;86.10
22108;DHT22;11220;48.812;9.128;2023-11-22T05:21:48;17.50;86.10
22108;DHT22;11220;48.812;9.128;2023-11-22T05:24:13;17.50;86.10
22108;DHT22;11220;48.812;9.128;2023-11-22T05:26:40;17.50;86.00
22108;DHT22;11220;48.812;9.128;2023-11-22T05:29:06;17.40;85.90
22108;DHT22;11220;48.812;9.128;2023-11-22T05:31:31;17.50;86.20
22108;DHT22;11220;48.812;9.128;2023-11-22T05:33:58;17.50;86.00
22108;DHT22;11220;48.812;9.128;2023-11-22T05:36:23;17.40;86.20
22108;DHT22;11220;48.812;9.128;2023-11-22T05:38:49;17.40;86.00
22108;DHT22;11220;48.812;9.128;2023-11-22T05:41:15;17.40;84.60
22108;DHT22;11220;48.812;9.128;2023-11-22T05:43:41;17.40;84.40
22108;DHT22;11220;48.812;9.128;2023-11-22T05:46:08;17.40;84.80
22108;DHT22;11220;48.812;9.128;2023-11-22T05:48:34;17.40;85.10
22108;DHT22;11220;48.812;9.128;2023-11-22T05:50:59;17.40;85.30
22108;DHT22;11220;48.812;9.128;2023-11-22T05:53:25;17.40;85.50
22108;DHT22;11220;48.812;9.128;2023-11-22T05:55:51;17.40;85.60
22108;DHT22;11220;48.812;9.128;2023-11-22T05:58:18;17.50;85.80
22108;DHT22;11220;48.812;9.128;2023-11-22T06:00:47;17.50;86.10
22108;DHT22;11220;48.812;9.128;2023-11-22T06:03:13;17.50;86.40
22108;DHT22;11220;48.812;9.128;2023-11-22T06:05:39;17.60;86.50
22108;DHT22;11220;48.812;9.128;2023-11-22T06:08:05;17.50;86.40
22108;DHT22;11220;48.812;9.128;2023-11-22T06:10:31;17.60;86.40
22108;DHT22;11220;48.812;9.128;2023-11-22T06:12:56;17.60;86.60
22108;DHT22;11220;48.812;9.128;2023-11-22T06:15:22;17.60;86.60
22108;DHT22;11220;48.812;9.128;2023-11-22T06:17:48;17.70;86.60
22108;DHT22;11220;48.812;9.128;2023-11-22T06:20:15;17.60;86.40
22108;DHT22;11220;48.812;9.128;2023-11-22T06:22:41;17.70;86.50
22108;DHT22;11220;48.812;9.128;2023-11-22T06:25:11;17.70;86.60
22108;DHT22;11220;48.812;9.128;2023-11-22T06:27:38;17.70;86.50
22108;DHT22;11220;48.812;9.128;2023-11-22T06:30:04;17.80;86.70
22108;DHT22;11220;48.812;9.128;2023-11-22T06:32:31;17.80;86.80
22108;DHT22;11220;48.812;9.128;2023-11-22T06:34:57;17.80;86.80
22108;DHT22;11220;48.812;9.128;2023-11-22T06:37:22;17.90;86.90
22108;DHT22;11220;48.812;9.128;2023-11-22T06:39:48;17.90;86.90
22108;DHT22;11220;48.812;9.128;2023-11-22T06:42:13;18.10;87.00
22108;DHT22;11220;48.812;9.128;2023-11-22T06:44:39;17.90;86.80
22108;DHT22;11220;48.812;9.128;2023-11-22T06:47:08;18.00;86.80
22108;DHT22;11220;48.812;9.128;2023-11-22T06:49:34;18.00;86.70
22108;DHT22;11220;48.812;9.128;2023-11-22T06:52:00;18.00;86.70
22108;DHT22;11220;48.812;9.128;2023-11-22T06:54:26;18.00;86.70
22108;DHT22;11220;48.812;9.128;2023-11-22T06:56:51;18.10;86.50
22108;DHT22;11220;48.812;9.128;2023-11-22T06:59:17;18.10;86.40
22108;DHT22;11220;48.812;9.128;2023-11-22T07:01:44;18.10;86.30
22108;DHT22;11220;48.812;9.128;2023-11-22T07:04:10;18.10;86.20
22108;DHT22;11220;48.812;9.128;2023-11-22T07:06:36;18.10;87.00
22108;DHT22;11220;48.812;9.128;2023-11-22T07:09:04;18.10;86.00
22108;DHT22;11220;48.812;9.128;2023-11-22T07:11:29;18.20;85.80
22108;DHT22;11220;48.812;9.128;2023-11-22T07:13:56;18.30;85.80
22108;DHT22;11220;48.812;9.128;2023-11-22T07:16:23;18.10;85.60
22108;DHT22;11220;48.812;9.128;2023-11-22T07:18:50;18.20;85.60
22108;DHT22;11220;48.812;9.128;2023-11-22T07:21:17;18.20;85.50
22108;DHT22;11220;48.812;9.128;2023-11-22T07:24:04;18.20;85.40
22108;DHT22;11220;48.812;9.128;2023-11-22T07:26:32;18.20;85.40
22108;DHT22;11220;48.812;9.128;2023-11-22T07:28:58;18.20;85.30
22108;DHT22;11220;48.812;9.128;2023-11-22T07:31:24;18.20;85.30
22108;DHT22;11220;48.812;9.128;2023-11-22T07:33:49;18.30;85.40
22108;DHT22;11220;48.812;9.128;2023-11-22T07:36:15;18.30;85.40
22108;DHT22;11220;48.812;9.128;2023-11-22T07:38:41;18.20;85.40
22108;DHT22;11220;48.812;9.128;2023-11-22T07:41:08;18.30;85.40
22108;DHT22;11220;48.812;9.128;2023-11-22T07:43:33;18.30;85.30
22108;DHT22;11220;48.812;9.128;2023-11-22T07:45:59;18.40;85.20
22108;DHT22;11220;48.812;9.128;2023-11-22T07:48:29;18.40;85.10
22108;DHT22;11220;48.812;9.128;2023-11-22T07:50:55;18.40;84.90
22108;DHT22;11220;48.812;9.128;2023-11-22T07:53:21;18.40;84.70
22108;DHT22;11220;48.812;9.128;2023-11-22T07:55:46;18.50;84.60
22108;DHT22;11220;48.812;9.128;2023-11-22T07:58:12;18.40;84.40
22108;DHT22;11220;48.812;9.128;2023-11-22T08:00:38;18.40;84.30
22108;DHT22;11220;48.812;9.128;2023-11-22T08:03:03;18.40;84.00
22108;DHT22;11220;48.812;9.128;2023-11-22T08:05:29;18.40;84.00
22108;DHT22;11220;48.812;9.128;2023-11-22T08:08:01;18.50;83.90
22108;DHT22;11220;48.812;9.128;2023-11-22T08:10:27;18.50;83.80
22108;DHT22;11220;48.812;9.128;2023-11-22T08:12:53;18.50;83.70
22108;DHT22;11220;48.812;9.128;2023-11-22T08:15:18;18.50;83.70
22108;DHT22;11220;48.812;9.128;2023-11-22T08:17:45;18.50;83.60
22108;DHT22;11220;48.812;9.128;2023-11-22T08:20:11;18.50;83.60
22108;DHT22;11220;48.812;9.128;2023-11-22T08:22:39;18.50;83.70
22108;DHT22;11220;48.812;9.128;2023-11-22T08:25:07;18.50;83.70
22108;DHT22;11220;48.812;9.128;2023-11-22T08:27:34;18.50;83.70
22108;DHT22;11220;48.812;9.128;2023-11-22T08:29:59;18.50;83.70
22108;DHT22;11220;48.812;9.128;2023-11-22T08:32:30;18.50;83.70
22108;DHT22;11220;48.812;9.128;2023-11-22T08:34:56;18.50;83.80
22108;DHT22;11220;48.812;9.128;2023-11-22T08:37:22;18.50;83.80
22108;DHT22;11220;48.812;9.128;2023-11-22T08:39:47;18.50;83.80
22108;DHT22;11220;48.812;9.128;2023-11-22T08:42:14;18.50;83.80
22108;DHT22;11220;48.812;9.128;2023-11-22T08:44:40;18.60;83.90
22108;DHT22;11220;48.812;9.128;2023-11-22T08:47:06;18.50;83.80
22108;DHT22;11220;48.812;9.128;2023-11-22T08:49:33;18.50;83.80
22108;DHT22;11220;48.812;9.128;2023-11-22T08:51:58;18.50;83.80
22108;DHT22;11220;48.812;9.128;2023-11-22T08:54:28;18.50;83.80
22108;DHT22;11220;48.812;9.128;2023-11-22T08:56:55;18.90;84.00
22108;DHT22;11220;48.812;9.128;2023-11-22T08:59:24;18.60;83.90
22108;DHT22;11220;48.812;9.128;2023-11-22T09:01:49;18.40;78.90
22108;DHT22;11220;48.812;9.128;2023-11-22T09:04:15;18.40;80.60
22108;DHT22;11220;48.812;9.128;2023-11-22T09:06:41;18.30;82.10
22108;DHT22;11220;48.812;9.128;2023-11-22T09:09:07;18.30;82.80
22108;DHT22;11220;48.812;9.128;2023-11-22T09:11:33;18.40;83.20
22108;DHT22;11220;48.812;9.128;2023-11-22T09:14:00;18.40;83.30
22108;DHT22;11220;48.812;9.128;2023-11-22T09:16:34;18.40;83.50
22108;DHT22;11220;48.812;9.128;2023-11-22T09:19:00;18.40;83.60
22108;DHT22;11220;48.812;9.128;2023-11-22T09:21:26;18.50;83.60
22108;DHT22;11220;48.812;9.128;2023-11-22T09:23:51;18.40;83.60
22108;DHT22;11220;48.812;9.128;2023-11-22T09:26:17;18.50;83.70
22108;DHT22;11220;48.812;9.128;2023-11-22T09:28:42;18.50;83.70
22108;DHT22;11220;48.812;9.128;2023-11-22T09:31:08;18.50;83.90
22108;DHT22;11220;48.812;9.128;2023-11-22T09:33:34;18.50;83.90
22108;DHT22;11220;48.812;9.128;2023-11-22T09:36:00;18.60;83.90
22108;DHT22;11220;48.812;9.128;2023-11-22T09:38:29;18.60;84.00
22108;DHT22;11220;48.812;9.128;2023-11-22T09:40:55;18.60;84.00
22108;DHT22;11220;48.812;9.128;2023-11-22T09:43:22;18.70;84.20
22108;DHT22;11220;48.812;9.128;2023-11-22T09:45:50;18.70;84.20
22108;DHT22;11220;48.812;9.128;2023-11-22T09:48:20;18.70;84.10
22108;DHT22;11220;48.812;9.128;2023-11-22T09:53:58;18.70;83.90
22108;DHT22;11220;48.812;9.128;2023-11-22T09:56:26;18.80;83.90
22108;DHT22;11220;48.812;9.128;2023-11-22T09:58:53;18.80;83.90
22108;DHT22;11220;48.812;9.128;2023-11-22T10:01:24;18.80;83.90
22108;DHT22;11220;48.812;9.128;2023-11-22T10:03:50;18.80;83.80
22108;DHT22;11220;48.812;9.128;2023-11-22T10:06:17;18.80;83.70
22108;DHT22;11220;48.812;9.128;2023-11-22T10:08:43;18.90;83.80
22108;DHT22;11220;48.812;9.128;2023-11-22T10:11:09;18.90;83.70
22108;DHT22;11220;48.812;9.128;2023-11-22T10:13:35;18.90;83.70
22108;DHT22;11220;48.812;9.128;2023-11-22T10:16:11;18.90;83.60
22108;DHT22;11220;48.812;9.128;2023-11-22T10:18:43;18.90;83.60
22108;DHT22;11220;48.812;9.128;2023-11-22T10:21:38;18.90;83.50
22108;DHT22;11220;48.812;9.128;2023-11-22T10:24:05;18.90;83.50
22108;DHT22;11220;48.812;9.128;2023-11-22T10:26:35;18.90;83.40
22108;DHT22;11220;48.812;9.128;2023-11-22T10:29:01;18.90;83.40
22108;DHT22;11220;48.812;9.128;2023-11-22T10:31:30;18.90;83.40
22108;DHT22;11220;48.812;9.128;2023-11-22T10:33:55;18.90;83.40
22108;DHT22;11220;48.812;9.128;2023-11-22T10:36:23;18.90;83.40
22108;DHT22;11220;48.812;9.128;2023-11-22T10:38:49;18.90;83.40
22108;DHT22;11220;48.812;9.128;2023-11-22T10:41:16;19.00;83.40
22108;DHT22;11220;48.812;9.128;2023-11-22T10:43:42;19.00;83.30
22108;DHT22;11220;48.812;9.128;2023-11-22T10:46:10;18.90;83.30
22108;DHT22;11220;48.812;9.128;2023-11-22T10:48:38;18.90;83.20
22108;DHT22;11220;48.812;9.128;2023-11-22T10:51:05;18.90;83.20
22108;DHT22;11220;48.812;9.128;2023-11-22T10:53:33;18.90;83.20
22108;DHT22;11220;48.812;9.128;2023-11-22T10:56:12;18.90;83.20
22108;DHT22;11220;48.812;9.128;2023-11-22T10:58:51;18.90;83.30
22108;DHT22;11220;48.812;9.128;2023-11-22T11:01:18;18.90;83.30
22108;DHT22;11220;48.812;9.128;2023-11-22T11:04:11;19.00;83.30
22108;DHT22;11220;48.812;9.128;2023-11-22T11:06:44;19.00;83.30
22108;DHT22;11220;48.812;9.128;2023-11-22T11:09:12;18.90;83.10
22108;DHT22;11220;48.812;9.128;2023-11-22T11:11:40;18.90;83.10
22108;DHT22;11220;48.812;9.128;2023-11-22T11:14:08;18.90;83.00
22108;DHT22;11220;48.812;9.128;2023-11-22T11:16:38;18.90;83.10
22108;DHT22;11220;48.812;9.128;2023-11-22T11:19:07;18.90;83.00
22108;DHT22;11220;48.812;9.128;2023-11-22T11:21:35;18.90;83.00
22108;DHT22;11220;48.812;9.128;2023-11-22T11:24:01;18.90;83.00
22108;DHT22;11220;48.812;9.128;2023-11-22T11:26:32;18.90;82.90
22108;DHT22;11220;48.812;9.128;2023-11-22T11:28:57;18.90;82.90
22108;DHT22;11220;48.812;9.128;2023-11-22T11:31:23;18.90;82.90
22108;DHT22;11220;48.812;9.128;2023-11-22T11:36:27;18.90;83.00
22108;DHT22;11220;48.812;9.128;2023-11-22T11:38:54;18.90;82.90
22108;DHT22;11220;48.812;9.128;2023-11-22T11:41:26;18.90;82.70
22108;DHT22;11220;48.812;9.128;2023-11-22T11:43:52;18.90;82.50
22108;DHT22;11220;48.812;9.128;2023-11-22T11:46:18;18.80;82.40
22108;DHT22;11220;48.812;9.128;2023-11-22T11:48:45;18.80;82.30
22108;DHT22;11220;48.812;9.128;2023-11-22T11:51:14;18.80;82.30
22108;DHT22;11220;48.812;9.128;2023-11-22T11:53:40;18.80;82.10
22108;DHT22;11220;48.812;9.128;2023-11-22T11:56:06;18.80;82.00
22108;DHT22;11220;48.812;9.128;2023-11-22T11:58:33;18.90;82.00
22108;DHT22;11220;48.812;9.128;2023-11-22T12:00:59;18.90;82.00
22108;DHT22;11220;48.812;9.128;2023-11-22T12:03:24;18.90;82.00
22108;DHT22;11220;48.812;9.128;2023-11-22T12:05:50;18.90;81.90
22108;DHT22;11220;48.812;9.128;2023-11-22T12:08:16;18.90;81.90
22108;DHT22;11220;48.812;9.128;2023-11-22T12:10:43;18.90;81.90
22108;DHT22;11220;48.812;9.128;2023-11-22T12:13:08;18.90;81.80
22108;DHT22;11220;48.812;9.128;2023-11-22T12:15:34;18.90;81.70
22108;DHT22;11220;48.812;9.128;2023-11-22T12:18:01;19.00;81.80
22108;DHT22;11220;48.812;9.128;2023-11-22T12:20:27;19.00;81.70
22108;DHT22;11220;48.812;9.128;2023-11-22T12:22:57;19.00;81.60
22108;DHT22;11220;48.812;9.128;2023-11-22T12:25:25;19.00;81.50
22108;DHT22;11220;48.812;9.128;2023-11-22T12:27:54;19.00;81.50
22108;DHT22;11220;48.812;9.128;2023-11-22T12:30:34;19.00;81.50
22108;DHT22;11220;48.812;9.128;2023-11-22T12:33:10;19.00;81.50
22108;DHT22;11220;48.812;9.128;2023-11-22T12:35:38;19.00;81.40
22108;DHT22;11220;48.812;9.128;2023-11-22T12:38:05;19.00;81.40
22108;DHT22;11220;48.812;9.128;2023-11-22T12:40:32;19.00;81.50
22108;DHT22;11220;48.812;9.128;2023-11-22T12:42:58;19.00;81.30
22108;DHT22;11220;48.812;9.128;2023-11-22T12:45:26;19.00;81.30
22108;DHT22;11220;48.812;9.128;2023-11-22T12:47:55;19.00;81.30
22108;DHT22;11220;48.812;9.128;2023-11-22T12:50:37;19.00;81.30
22108;DHT22;11220;48.812;9.128;2023-11-22T12:53:13;19.00;81.20
22108;DHT22;11220;48.812;9.128;2023-11-22T12:55:46;19.00;81.20
22108;DHT22;11220;48.812;9.128;2023-11-22T12:58:18;19.00;81.20
22108;DHT22;11220;48.812;9.128;2023-11-22T13:00:46;19.00;80.00
22108;DHT22;11220;48.812;9.128;2023-11-22T13:03:12;18.80;76.40
22108;DHT22;11220;48.812;9.128;2023-11-22T13:05:43;18.70;77.50
22108;DHT22;11220;48.812;9.128;2023-11-22T13:08:09;18.70;79.60
22108;DHT22;11220;48.812;9.128;2023-11-22T13:10:45;18.70;80.30
22108;DHT22;11220;48.812;9.128;2023-11-22T13:13:28;18.70;80.60
22108;DHT22;11220;48.812;9.128;2023-11-22T13:15:55;18.70;80.60
22108;DHT22;11220;48.812;9.128;2023-11-22T13:18:22;18.70;80.70
22108;DHT22;11220;48.812;9.128;2023-11-22T13:20:47;18.70;80.70
22108;DHT22;11220;48.812;9.128;2023-11-22T13:23:14;18.70;80.70
22108;DHT22;11220;48.812;9.128;2023-11-22T13:25:40;18.70;80.70
22108;DHT22;11220;48.812;9.128;2023-11-22T13:28:10;18.80;80.80
22108;DHT22;11220;48.812;9.128;2023-11-22T13:30:35;18.80;80.80
22108;DHT22;11220;48.812;9.128;2023-11-22T13:33:01;18.80;80.80
22108;DHT22;11220;48.812;9.128;2023-11-22T13:35:28;18.80;80.80
22108;DHT22;11220;48.812;9.128;2023-11-22T13:38:00;18.80;80.90
22108;DHT22;11220;48.812;9.128;2023-11-22T13:40:27;18.80;80.90
22108;DHT22;11220;48.812;9.128;2023-11-22T13:42:57;18.80;80.90
22108;DHT22;11220;48.812;9.128;2023-11-22T13:45:22;18.80;80.90
22108;DHT22;11220;48.812;9.128;2023-11-22T13:47:55;18.80;81.00
22108;DHT22;11220;48.812;9.128;2023-11-22T13:50:25;18.80;81.00
22108;DHT22;11220;48.812;9.128;2023-11-22T13:52:52;18.80;81.00
22108;DHT22;11220;48.812;9.128;2023-11-22T13:55:18;18.80;81.00
22108;DHT22;11220;48.812;9.128;2023-11-22T13:57:55;18.80;81.00
22108;DHT22;11220;48.812;9.128;2023-11-22T14:00:22;18.80;81.00
22108;DHT22;11220;48.812;9.128;2023-11-22T14:02:50;18.80;81.10
22108;DHT22;11220;48.812;9.128;2023-11-22T14:05:22;18.80;81.10
22108;DHT22;11220;48.812;9.128;2023-11-22T14:07:47;18.80;81.20
22108;DHT22;11220;48.812;9.128;2023-11-22T14:10:14;18.70;81.10
22108;DHT22;11220;48.812;9.128;2023-11-22T14:12:42;18.80;81.10
22108;DHT22;11220;48.812;9.128;2023-11-22T14:15:08;18.80;81.20
22108;DHT22;11220;48.812;9.128;2023-11-22T14:17:35;18.80;81.10
22108;DHT22;11220;48.812;9.128;2023-11-22T14:20:01;18.80;81.00
22108;DHT22;11220;48.812;9.128;2023-11-22T14:22:26;18.80;81.10
22108;DHT22;11220;48.812;9.128;2023-11-22T14:24:52;18.70;81.00
22108;DHT22;11220;48.812;9.128;2023-11-22T14:27:19;18.70;80.90
22108;DHT22;11220;48.812;9.128;2023-11-22T14:29:47;18.70;80.60
22108;DHT22;11220;48.812;9.128;2023-11-22T14:32:15;18.70;80.50
22108;DHT22;11220;48.812;9.128;2023-11-22T14:34:40;18.70;80.40
22108;DHT22;11220;48.812;9.128;2023-11-22T14:37:12;18.60;80.20
22108;DHT22;11220;48.812;9.128;2023-11-22T14:39:38;18.60;80.30
22108;DHT22;11220;48.812;9.128;2023-11-22T14:42:04;18.60;80.20
22108;DHT22;11220;48.812;9.128;2023-11-22T14:44:31;18.70;80.30
22108;DHT22;11220;48.812;9.128;2023-11-22T14:46:57;18.60;80.20
22108;DHT22;11220;48.812;9.128;2023-11-22T14:49:24;18.70;80.30
22108;DHT22;11220;48.812;9.128;2023-11-22T14:51:51;18.60;80.20
22108;DHT22;11220;48.812;9.128;2023-11-22T14:54:16;18.70;80.40
22108;DHT22;11220;48.812;9.128;2023-11-22T14:56:42;18.60;80.30
22108;DHT22;11220;48.812;9.128;2023-11-22T14:59:07;18.60;80.30
22108;DHT22;11220;48.812;9.128;2023-11-22T15:01:33;18.60;80.30
22108;DHT22;11220;48.812;9.128;2023-11-22T15:03:58;18.60;80.40
22108;DHT22;11220;48.812;9.128;2023-11-22T15:06:24;18.60;80.40
22108;DHT22;11220;48.812;9.128;2023-11-22T15:08:50;18.60;80.40
22108;DHT22;11220;48.812;9.128;2023-11-22T15:11:16;18.60;80.40
22108;DHT22;11220;48.812;9.128;2023-11-22T15:13:46;18.60;80.50
22108;DHT22;11220;48.812;9.128;2023-11-22T15:16:11;18.50;80.40
22108;DHT22;11220;48.812;9.128;2023-11-22T15:18:38;18.60;80.50
22108;DHT22;11220;48.812;9.128;2023-11-22T15:21:05;18.60;80.60
22108;DHT22;11220;48.812;9.128;2023-11-22T15:23:31;18.60;80.60
22108;DHT22;11220;48.812;9.128;2023-11-22T15:25:56;18.60;80.60
22108;DHT22;11220;48.812;9.128;2023-11-22T15:28:24;18.60;80.60
22108;DHT22;11220;48.812;9.128;2023-11-22T15:30:50;18.60;80.70
22108;DHT22;11220;48.812;9.128;2023-11-22T15:33:24;18.60;80.70